createdAt,value
2017-09-27T00:00:21.377Z,3.13
2017-09-27T00:02:50.843Z,3.10
2017-09-27T00:05:23.383Z,2.70
2017-09-27T00:07:52.939Z,2.90
2017-09-27T00:10:22.376Z,2.30
2017-09-27T00:12:51.837Z,2.67
2017-09-27T00:15:21.255Z,2.80
2017-09-27T00:17:58.127Z,3.33
2017-09-27T00:20:27.562Z,2.30
2017-09-27T00:22:57.206Z,2.27
2017-09-27T00:25:26.604Z,2.80
2017-09-27T00:27:56.052Z,2.57
2017-09-27T00:30:31.600Z,2.80
2017-09-27T00:33:01.040Z,2.80
2017-09-27T00:35:30.529Z,2.50
2017-09-27T00:38:01.154Z,2.50
2017-09-27T00:40:30.577Z,2.60
2017-09-27T00:43:00.008Z,2.60
2017-09-27T00:45:29.456Z,2.63
2017-09-27T00:47:58.867Z,2.70
2017-09-27T00:50:28.525Z,2.60
2017-09-27T00:52:57.926Z,2.60
2017-09-27T00:55:27.405Z,2.93
2017-09-27T00:58:02.919Z,3.33
2017-09-27T01:00:32.408Z,2.70
2017-09-27T01:03:01.877Z,2.93
2017-09-27T01:05:31.325Z,2.93
2017-09-27T01:08:08.078Z,3.13
2017-09-27T01:10:37.557Z,2.77
2017-09-27T01:13:07.021Z,2.80
2017-09-27T01:15:36.462Z,2.80
2017-09-27T01:18:05.924Z,2.80
2017-09-27T01:20:35.382Z,2.60
2017-09-27T01:23:12.499Z,2.70
2017-09-27T01:25:41.933Z,2.60
2017-09-27T01:28:11.411Z,3.23
2017-09-27T01:30:40.996Z,3.20
2017-09-27T01:33:23.429Z,3.17
2017-09-27T01:35:53.166Z,3.07
2017-09-27T01:38:22.771Z,2.60
2017-09-27T01:40:53.021Z,2.80
2017-09-27T01:43:34.045Z,3.20
2017-09-27T01:46:04.729Z,3.00
2017-09-27T01:48:40.637Z,2.87
2017-09-27T01:51:10.194Z,2.93
2017-09-27T01:53:39.769Z,2.67
2017-09-27T01:56:10.222Z,2.50
2017-09-27T01:58:39.943Z,2.70
2017-09-27T02:01:09.410Z,2.63
2017-09-27T02:03:39.090Z,2.80
2017-09-27T02:06:08.708Z,2.90
2017-09-27T02:08:38.142Z,3.23
2017-09-27T02:11:23.069Z,2.77
2017-09-27T02:13:52.609Z,2.80
2017-09-27T02:16:22.173Z,2.80
2017-09-27T02:18:58.753Z,3.10
2017-09-27T02:21:28.257Z,2.80
2017-09-27T02:23:58.533Z,2.60
2017-09-27T02:26:28.015Z,2.50
2017-09-27T02:29:10.657Z,2.97
2017-09-27T02:31:40.095Z,2.90
2017-09-27T02:34:09.648Z,2.77
2017-09-27T02:36:40.543Z,2.73
2017-09-27T02:39:10.156Z,3.03
2017-09-27T02:41:39.737Z,3.47
2017-09-27T02:44:09.408Z,2.90
2017-09-27T02:46:38.990Z,2.93
2017-09-27T02:49:08.417Z,3.07
2017-09-27T02:51:53.257Z,2.73
2017-09-27T02:54:23.455Z,3.50
2017-09-27T02:56:53.064Z,2.90
2017-09-27T02:59:22.674Z,2.87
2017-09-27T03:01:52.335Z,3.13
2017-09-27T03:04:21.880Z,2.83
2017-09-27T03:06:51.296Z,3.23
2017-09-27T03:09:20.741Z,3.57
2017-09-27T03:11:50.173Z,3.40
2017-09-27T03:14:27.757Z,3.50
2017-09-27T03:16:57.187Z,2.80
2017-09-27T03:19:26.610Z,3.23
2017-09-27T03:21:56.093Z,3.20
2017-09-27T03:24:25.633Z,2.83
2017-09-27T03:26:55.046Z,2.90
2017-09-27T03:29:38.921Z,3.43
2017-09-27T03:32:08.375Z,2.93
2017-09-27T03:34:37.809Z,2.80
2017-09-27T03:37:21.022Z,3.17
2017-09-27T03:39:50.436Z,3.33
2017-09-27T03:42:19.909Z,2.80
2017-09-27T03:44:49.349Z,3.30
2017-09-27T03:47:18.742Z,3.50
2017-09-27T03:49:48.170Z,4.30
2017-09-27T03:52:17.605Z,2.90
2017-09-27T03:54:47.053Z,4.50
2017-09-27T03:57:16.577Z,4.23
2017-09-27T03:59:46.035Z,4.20
2017-09-27T04:02:18.466Z,3.57
2017-09-27T04:04:47.905Z,3.53
2017-09-27T04:07:17.946Z,3.63
2017-09-27T04:09:56.919Z,3.70
2017-09-27T04:12:26.367Z,4.87
2017-09-27T04:14:55.806Z,8.93
2017-09-27T04:17:25.247Z,13.53
2017-09-27T04:19:54.702Z,14.60
2017-09-27T04:22:24.182Z,20.70
2017-09-27T04:24:53.613Z,15.00
2017-09-27T04:27:23.063Z,12.83
2017-09-27T04:29:52.823Z,20.03
2017-09-27T04:32:22.278Z,16.20
2017-09-27T04:34:51.843Z,12.00
2017-09-27T04:37:21.245Z,11.33
2017-09-27T04:39:50.660Z,9.70
2017-09-27T04:42:20.162Z,9.10
2017-09-27T04:44:49.645Z,10.10
2017-09-27T04:47:20.647Z,10.50
2017-09-27T04:50:03.880Z,12.97
2017-09-27T04:52:33.322Z,12.93
2017-09-27T04:55:02.731Z,13.60
2017-09-27T04:57:32.202Z,10.33
2017-09-27T05:00:07.718Z,12.33
2017-09-27T05:02:37.220Z,10.23
2017-09-27T05:05:14.850Z,13.43
2017-09-27T05:07:44.308Z,11.50
2017-09-27T05:10:27.001Z,10.00
2017-09-27T05:12:56.558Z,10.13
2017-09-27T05:15:26.003Z,9.67
2017-09-27T05:17:55.443Z,10.10
2017-09-27T05:20:36.911Z,13.30
2017-09-27T05:23:06.326Z,9.90
2017-09-27T05:25:37.513Z,14.17
2017-09-27T05:28:06.946Z,14.73
2017-09-27T05:30:36.359Z,13.13
2017-09-27T05:33:05.868Z,13.50
2017-09-27T05:35:35.289Z,16.33
2017-09-27T05:38:04.707Z,13.60
2017-09-27T05:40:34.103Z,13.00
2017-09-27T05:43:03.557Z,16.80
2017-09-27T05:45:34.507Z,13.87
2017-09-27T05:48:11.266Z,13.97
2017-09-27T05:50:55.461Z,10.83
2017-09-27T05:53:24.878Z,11.47
2017-09-27T05:55:54.287Z,9.23
2017-09-27T05:58:23.773Z,8.90
2017-09-27T06:00:53.219Z,9.20
2017-09-27T06:03:22.630Z,8.40
2017-09-27T06:05:52.110Z,9.70
2017-09-27T06:08:21.590Z,6.50
2017-09-27T06:10:51.021Z,6.33
2017-09-27T06:13:20.436Z,6.83
2017-09-27T06:15:50.092Z,9.90
2017-09-27T06:18:20.629Z,9.10
2017-09-27T06:20:50.657Z,9.50
2017-09-27T06:23:20.094Z,12.53
2017-09-27T06:26:00.390Z,10.97
2017-09-27T06:28:43.229Z,10.50
2017-09-27T06:31:12.790Z,11.37
2017-09-27T06:33:42.287Z,8.70
2017-09-27T06:36:11.814Z,9.47
2017-09-27T06:38:41.292Z,9.40
2017-09-27T06:41:10.770Z,9.83
2017-09-27T06:43:40.225Z,12.37
2017-09-27T06:46:10.289Z,13.23
2017-09-27T06:48:45.987Z,14.83
2017-09-27T06:51:15.407Z,10.83
2017-09-27T06:53:51.275Z,10.50
2017-09-27T06:56:26.859Z,9.47
2017-09-27T06:58:57.668Z,10.50
2017-09-27T07:01:27.151Z,15.30
2017-09-27T07:03:57.177Z,12.30
2017-09-27T07:06:26.803Z,11.90
2017-09-27T07:08:56.277Z,7.70
2017-09-27T07:11:26.820Z,7.03
2017-09-27T07:13:56.229Z,5.97
2017-09-27T07:16:25.749Z,5.40
2017-09-27T07:18:55.180Z,5.60
2017-09-27T07:21:25.041Z,5.17
2017-09-27T07:23:54.809Z,3.83
2017-09-27T07:26:24.310Z,3.50
2017-09-27T07:28:53.783Z,3.17
2017-09-27T07:31:23.295Z,3.07
2017-09-27T07:33:59.581Z,3.10
2017-09-27T07:36:28.992Z,3.23
2017-09-27T07:38:58.423Z,3.93
2017-09-27T07:41:28.029Z,2.73
2017-09-27T07:43:57.448Z,2.77
2017-09-27T07:46:26.992Z,2.73
2017-09-27T07:49:03.174Z,2.50
2017-09-27T07:51:33.231Z,2.70
2017-09-27T07:54:02.625Z,2.87
2017-09-27T07:56:32.112Z,2.83
2017-09-27T07:59:10.138Z,3.13
2017-09-27T08:01:39.779Z,3.10
2017-09-27T08:04:09.221Z,3.20
2017-09-27T08:06:38.620Z,3.20
2017-09-27T08:09:15.545Z,3.30
2017-09-27T08:11:44.991Z,2.73
2017-09-27T08:14:14.395Z,3.13
2017-09-27T08:16:50.174Z,2.80
2017-09-27T08:19:19.752Z,2.80
2017-09-27T08:21:49.194Z,3.27
2017-09-27T08:24:19.334Z,2.70
2017-09-27T08:26:48.993Z,3.20
2017-09-27T08:29:18.981Z,3.67
2017-09-27T08:31:48.491Z,2.50
2017-09-27T08:34:18.029Z,2.90
2017-09-27T08:36:47.409Z,2.67
2017-09-27T08:39:17.533Z,3.30
2017-09-27T08:41:47.520Z,3.07
2017-09-27T08:44:17.083Z,3.00
2017-09-27T08:46:46.526Z,3.27
2017-09-27T08:49:15.955Z,3.10
2017-09-27T08:51:45.659Z,2.93
2017-09-27T16:42:15.485Z,3.50
2017-09-27T16:44:43.510Z,3.13
2017-09-27T16:47:13.315Z,5.00
2017-09-27T16:49:54.692Z,4.30
2017-09-27T16:55:48.365Z,3.70
2017-09-27T16:58:17.966Z,3.53
2017-09-27T17:00:59.529Z,3.47
2017-09-27T17:03:29.795Z,2.80
2017-09-27T17:06:14.453Z,3.30
2017-09-27T17:08:43.678Z,3.80
2017-09-27T17:11:13.035Z,2.93
2017-09-27T17:13:48.169Z,3.87
2017-09-27T17:16:17.302Z,3.57
2017-09-27T17:18:46.750Z,3.20
2017-09-27T17:21:21.996Z,3.20
2017-09-27T17:23:51.399Z,3.50
2017-09-27T17:26:22.370Z,3.47
2017-09-27T17:28:51.645Z,3.67
2017-09-27T17:31:22.649Z,3.43
2017-09-27T17:33:52.010Z,3.40
2017-09-27T17:36:21.106Z,3.00
2017-09-27T17:38:57.237Z,3.60
2017-09-27T17:41:32.544Z,3.40
2017-09-27T17:44:02.496Z,3.27
2017-09-27T17:46:39.039Z,3.07
2017-09-27T17:49:14.584Z,3.43
2017-09-27T17:51:43.701Z,3.17
2017-09-27T17:54:12.910Z,3.30
2017-09-27T17:56:42.497Z,3.40
2017-09-27T17:59:13.426Z,3.40
2017-09-27T18:01:42.502Z,3.13
2017-09-27T18:07:20.140Z,3.53
2017-09-27T18:09:54.914Z,3.67
2017-09-27T18:12:38.406Z,3.20
2017-09-27T18:15:13.404Z,3.03
2017-09-27T18:17:44.331Z,3.17
2017-09-27T18:20:13.497Z,3.00
2017-09-27T18:23:01.137Z,4.13
2017-09-27T18:25:30.336Z,3.47
2017-09-27T18:27:59.856Z,3.33
2017-09-27T18:30:30.292Z,3.50
2017-09-27T18:33:01.861Z,3.63
2017-09-27T18:35:37.186Z,3.27
2017-09-27T18:38:13.233Z,3.27
2017-09-27T18:40:42.350Z,2.87
2017-09-27T18:43:11.472Z,3.10
2017-09-27T18:45:40.605Z,3.87
2017-09-27T18:48:09.761Z,3.07
2017-09-27T18:50:38.874Z,3.67
2017-09-27T18:53:14.262Z,3.60
2017-09-27T18:55:43.827Z,3.03
2017-09-27T18:58:12.944Z,3.33
2017-09-27T19:00:42.851Z,3.50
2017-09-27T19:03:12.064Z,4.07
2017-09-27T19:05:41.573Z,3.77
2017-09-27T19:08:17.702Z,4.43
2017-09-27T19:10:47.089Z,3.70
2017-09-27T19:13:16.288Z,3.70
2017-09-27T19:15:45.415Z,4.37
2017-09-27T19:18:15.337Z,4.00
2017-09-27T19:20:44.464Z,3.30
2017-09-27T19:23:13.595Z,2.80
2017-09-27T19:25:42.907Z,3.30
2017-09-27T19:28:14.047Z,3.80
2017-09-27T19:30:43.199Z,4.37
2017-09-27T19:33:12.334Z,4.00
2017-09-27T19:35:54.298Z,3.90
2017-09-27T19:38:38.940Z,3.20
2017-09-27T19:41:08.089Z,4.10
2017-09-27T19:43:37.476Z,3.80
2017-09-27T19:46:06.893Z,3.57
2017-09-27T19:48:36.012Z,3.97
2017-09-27T19:51:05.153Z,4.10
2017-09-27T19:53:34.242Z,3.97
2017-09-27T19:56:16.382Z,3.73
2017-09-27T19:58:45.700Z,4.27
2017-09-27T20:01:27.213Z,3.97
2017-09-27T20:04:02.591Z,4.37
2017-09-27T20:06:37.925Z,4.30
2017-09-27T20:09:11.650Z,3.77
2017-09-27T20:11:47.507Z,3.63
2017-09-27T20:14:17.361Z,4.53
2017-09-27T20:16:46.701Z,4.30
2017-09-27T20:19:15.811Z,4.83
2017-09-27T20:21:52.325Z,4.03
2017-09-27T20:24:21.679Z,4.20
2017-09-27T20:26:50.977Z,4.10
2017-09-27T20:29:20.322Z,4.47
2017-09-27T20:31:49.432Z,4.00
2017-09-27T20:34:25.445Z,4.50
2017-09-27T20:36:57.741Z,3.77
2017-09-27T20:39:26.895Z,3.73
2017-09-27T20:41:59.208Z,4.40
2017-09-27T20:44:34.948Z,4.50
2017-09-27T20:47:04.348Z,4.00
2017-09-27T20:49:33.699Z,4.03
2017-09-27T20:52:03.326Z,4.67
2017-09-27T20:54:33.162Z,4.00
2017-09-27T20:57:02.714Z,4.70
2017-09-27T20:59:32.410Z,5.00
2017-09-27T21:02:01.622Z,3.73
2017-09-27T21:04:31.292Z,4.10
2017-09-27T21:07:00.793Z,4.50
2017-09-27T21:09:30.243Z,4.70
2017-09-27T21:12:06.382Z,4.03
2017-09-27T21:14:35.535Z,4.30
2017-09-27T21:17:04.739Z,4.70
2017-09-27T21:19:34.088Z,4.20
2017-09-27T21:22:03.447Z,4.13
2017-09-27T21:24:32.539Z,3.73
2017-09-27T21:27:01.706Z,4.37
2017-09-27T21:29:32.074Z,4.33
2017-09-27T21:32:01.604Z,3.93
2017-09-27T21:34:30.705Z,4.50
2017-09-27T21:37:07.817Z,4.43
2017-09-27T21:39:37.033Z,4.37
2017-09-27T21:42:16.373Z,4.20
2017-09-27T21:44:45.546Z,3.60
2017-09-27T21:47:26.864Z,4.10
2017-09-27T21:49:56.006Z,3.97
2017-09-27T21:52:25.131Z,4.07
2017-09-27T21:55:01.661Z,4.20
2017-09-27T21:57:30.841Z,4.60
2017-09-27T22:00:00.173Z,4.43
2017-09-27T22:02:29.540Z,4.63
2017-09-27T22:05:04.749Z,3.47
2017-09-27T22:07:33.885Z,4.73
2017-09-27T22:10:03.125Z,4.60
2017-09-27T22:12:32.225Z,4.20
2017-09-27T22:15:01.497Z,4.53
2017-09-27T22:17:30.623Z,4.30
2017-09-27T22:20:00.049Z,3.60
2017-09-27T22:22:29.385Z,4.93
2017-09-27T22:24:58.658Z,3.73
2017-09-27T22:27:27.759Z,4.30
2017-09-27T22:29:57.242Z,4.10
2017-09-27T22:32:28.097Z,4.30
2017-09-27T22:34:57.241Z,4.20
2017-09-27T22:37:27.779Z,4.00
2017-09-27T22:39:56.933Z,4.30
2017-09-27T22:42:26.038Z,4.20
2017-09-27T22:44:55.113Z,4.07
2017-09-27T22:47:24.254Z,4.03
2017-09-27T22:49:53.422Z,3.80
2017-09-27T22:52:22.689Z,4.37
2017-09-27T22:54:51.818Z,4.60
2017-09-27T22:57:35.981Z,5.03
2017-09-27T23:00:05.171Z,5.03
2017-09-27T23:02:34.437Z,3.90
2017-09-27T23:05:03.718Z,5.00
2017-09-27T23:07:38.889Z,4.40
2017-09-27T23:10:08.004Z,3.80
2017-09-27T23:12:37.638Z,4.47
2017-09-27T23:15:06.910Z,4.10
2017-09-27T23:17:36.001Z,4.37
2017-09-27T23:20:11.361Z,4.90
2017-09-27T23:22:40.519Z,4.70
2017-09-27T23:25:16.076Z,4.47
2017-09-27T23:27:45.212Z,4.60
2017-09-27T23:30:14.350Z,4.20
2017-09-27T23:32:56.958Z,4.00
2017-09-27T23:35:26.056Z,4.30
2017-09-27T23:37:55.201Z,4.57
2017-09-27T23:40:24.309Z,4.20
2017-09-27T23:42:53.496Z,4.77
2017-09-27T23:45:30.174Z,4.60
2017-09-27T23:48:06.021Z,4.30
2017-09-27T23:50:35.186Z,4.30
2017-09-27T23:53:04.356Z,3.83
2017-09-27T23:55:41.210Z,4.20
2017-09-27T23:58:10.338Z,4.13
